Time;durP1;ratioP1;P1;durP2;ratioP2;P2;SDS_P1;SDS_P2;PMS_P1;PMS_P2;Temp;Humidity;BMP_temperature;BMP_pressure;BME280_temperature;BME280_humidity;BME280_pressure;Samples;Min_cycle;Max_cycle;Signal;HPM_P1;HPM_P2
2022/05/13 00:00:12;;;;;;;11.02;3.70;;;11.80;99.90;;;;;;5022114;28;21760;-35
2022/05/13 00:02:38;;;;;;;10.82;3.80;;;11.70;99.90;;;;;;5025281;28;20068;-35
2022/05/13 00:05:05;;;;;;;11.70;3.85;;;11.80;99.90;;;;;;5024006;28;20516;-35
2022/05/13 00:07:31;;;;;;;10.85;4.20;;;11.80;99.90;;;;;;5006767;28;20057;-35
2022/05/13 00:09:57;;;;;;;13.90;4.10;;;11.80;99.90;;;;;;5019852;28;20042;-35
2022/05/13 00:12:24;;;;;;;10.77;4.13;;;11.70;99.90;;;;;;5027004;28;20052;-35
2022/05/13 00:14:51;;;;;;;9.80;4.18;;;11.80;99.90;;;;;;5027690;28;20489;-35
2022/05/13 00:17:18;;;;;;;12.93;4.35;;;11.70;99.90;;;;;;5009572;28;20535;-35
2022/05/13 00:19:44;;;;;;;12.90;3.85;;;11.70;99.90;;;;;;5023532;28;20062;-35
2022/05/13 00:22:10;;;;;;;9.63;3.58;;;11.70;99.90;;;;;;5027405;28;20041;-35
2022/05/13 00:24:36;;;;;;;8.75;3.63;;;11.70;99.90;;;;;;5021362;28;20056;-35
2022/05/13 00:27:02;;;;;;;13.23;4.40;;;11.60;99.90;;;;;;5010135;28;20591;-35
2022/05/13 00:29:28;;;;;;;13.63;4.22;;;11.70;99.90;;;;;;5019230;28;20136;-35
2022/05/13 00:31:54;;;;;;;11.57;4.35;;;11.70;99.90;;;;;;5025546;28;20128;-35
2022/05/13 00:34:19;;;;;;;12.27;4.35;;;11.70;99.90;;;;;;5022026;28;20064;-35
2022/05/13 00:36:47;;;;;;;10.70;4.20;;;11.80;99.90;;;;;;5011550;28;20563;-35
2022/05/13 00:39:13;;;;;;;8.43;4.18;;;11.70;99.90;;;;;;5025472;28;20075;-35
2022/05/13 00:41:39;;;;;;;10.52;3.90;;;11.60;99.90;;;;;;5026565;28;20076;-35
2022/05/13 00:44:05;;;;;;;10.75;4.70;;;11.70;99.90;;;;;;5024750;28;20072;-35
2022/05/13 00:46:31;;;;;;;11.73;4.57;;;11.70;99.90;;;;;;5012750;28;20069;-35
2022/05/13 00:49:01;;;;;;;13.23;4.78;;;11.70;99.90;;;;;;5021021;28;20488;-35
2022/05/13 00:51:31;;;;;;;15.05;5.13;;;11.70;99.90;;;;;;5024467;28;20045;-35
2022/05/13 00:53:58;;;;;;;12.07;5.07;;;11.70;99.90;;;;;;5023280;28;20061;-35
2022/05/13 00:56:24;;;;;;;15.52;5.57;;;11.70;99.90;;;;;;5011986;28;20045;-35
2022/05/13 00:58:56;;;;;;;14.25;5.15;;;11.70;99.90;;;;;;5018847;28;20136;-35
2022/05/13 01:01:22;;;;;;;14.50;5.63;;;11.70;99.90;;;;;;5024738;28;20045;-35
2022/05/13 01:03:50;;;;;;;13.45;5.35;;;11.70;99.90;;;;;;5022491;28;20065;-35
2022/05/13 01:06:22;;;;;;;13.23;4.97;;;11.70;99.90;;;;;;5017669;28;20069;-35
2022/05/13 01:08:49;;;;;;;14.50;5.35;;;11.70;99.90;;;;;;5022462;28;20507;-35
2022/05/13 01:11:17;;;;;;;12.20;4.97;;;11.70;99.90;;;;;;5025683;28;20046;-35
2022/05/13 01:13:54;;;;;;;15.25;5.03;;;11.70;99.90;;;;;;5025329;28;20053;-35
2022/05/13 01:16:19;;;;;;;14.32;5.07;;;11.80;99.90;;;;;;5012003;28;20115;-35
2022/05/13 01:18:45;;;;;;;12.15;5.03;;;11.80;99.90;;;;;;5014145;28;20065;-35
2022/05/13 01:21:15;;;;;;;15.70;4.75;;;11.80;99.90;;;;;;5020368;28;20046;-35
2022/05/13 01:23:43;;;;;;;12.30;4.93;;;11.80;99.90;;;;;;5024439;28;20068;-35
2022/05/13 01:26:16;;;;;;;15.98;5.10;;;11.80;99.90;;;;;;5013603;28;20049;-36
2022/05/13 01:28:47;;;;;;;12.63;5.07;;;11.80;99.90;;;;;;5022465;28;20052;-35
2022/05/13 01:31:20;;;;;;;15.52;4.72;;;11.80;99.90;;;;;;5021499;28;20448;-35
2022/05/13 01:33:46;;;;;;;15.10;4.68;;;11.90;99.90;;;;;;5024262;28;20045;-35
2022/05/13 01:36:15;;;;;;;14.65;5.43;;;11.80;99.90;;;;;;5016679;28;20041;-35
2022/05/13 01:38:42;;;;;;;16.83;5.10;;;11.80;99.90;;;;;;5017765;28;20061;-35
2022/05/13 01:41:10;;;;;;;13.65;4.45;;;11.90;99.90;;;;;;5024633;28;20111;-35
2022/05/13 01:43:37;;;;;;;16.38;5.13;;;11.80;99.90;;;;;;5024851;28;20064;-35
2022/05/13 01:46:03;;;;;;;15.00;4.90;;;11.90;99.90;;;;;;5024225;28;20071;-35
2022/05/13 01:48:29;;;;;;;14.85;4.95;;;11.80;99.90;;;;;;5006674;28;20046;-35
2022/05/13 01:50:55;;;;;;;15.27;4.88;;;11.90;99.90;;;;;;5023562;28;20045;-35
2022/05/13 01:53:21;;;;;;;12.48;4.95;;;11.80;99.90;;;;;;5025688;28;20075;-35
2022/05/13 01:55:47;;;;;;;18.42;4.95;;;11.90;99.90;;;;;;5020873;28;20054;-35
2022/05/13 01:58:17;;;;;;;13.43;4.43;;;11.90;99.90;;;;;;5005580;28;20057;-35
2022/05/13 02:00:45;;;;;;;17.02;5.07;;;11.90;99.90;;;;;;5022594;28;20060;-35
2022/05/13 02:05:55;;;;;;;15.10;5.63;;;12.00;99.90;;;;;;5022586;28;20103;-35
2022/05/13 02:08:21;;;;;;;18.98;5.70;;;12.00;99.90;;;;;;5010155;28;20049;-35
2022/05/13 02:10:47;;;;;;;23.58;6.28;;;12.00;99.90;;;;;;5022705;28;20148;-35
2022/05/13 02:13:14;;;;;;;16.63;4.93;;;12.00;99.90;;;;;;5021679;28;20046;-35
2022/05/13 02:15:40;;;;;;;20.65;6.07;;;12.00;99.90;;;;;;5025366;28;20053;-35
2022/05/13 02:18:07;;;;;;;16.48;5.18;;;12.00;99.90;;;;;;5007104;28;20041;-35
2022/05/13 02:20:33;;;;;;;22.27;5.93;;;12.00;99.90;;;;;;5023582;28;20642;-35
2022/05/13 02:22:59;;;;;;;17.95;5.75;;;12.00;99.90;;;;;;5022319;28;20148;-35
2022/05/13 02:25:25;;;;;;;17.73;6.05;;;12.00;99.90;;;;;;5021281;28;20049;-35
2022/05/13 02:27:51;;;;;;;16.75;5.63;;;12.00;99.90;;;;;;5007959;28;20046;-35
2022/05/13 02:30:17;;;;;;;16.70;5.53;;;12.10;99.90;;;;;;5025038;28;20064;-35
2022/05/13 02:32:42;;;;;;;18.95;6.32;;;12.00;99.90;;;;;;5026174;28;20046;-35
2022/05/13 02:35:09;;;;;;;14.68;5.93;;;12.00;99.90;;;;;;5027973;28;20128;-35
2022/05/13 02:37:35;;;;;;;21.20;6.22;;;12.00;99.90;;;;;;5012635;28;20049;-36
2022/05/13 02:40:01;;;;;;;23.02;6.13;;;12.10;99.90;;;;;;5029854;28;20069;-35
2022/05/13 02:42:27;;;;;;;16.77;5.93;;;12.00;99.90;;;;;;5023927;28;20452;-35
2022/05/13 02:44:53;;;;;;;22.42;6.95;;;12.10;99.90;;;;;;5028343;28;20054;-35
2022/05/13 02:47:18;;;;;;;20.65;6.20;;;12.00;99.90;;;;;;5012753;28;20072;-36
2022/05/13 02:49:44;;;;;;;17.77;6.20;;;12.10;99.90;;;;;;5026688;28;20061;-35
2022/05/13 02:52:11;;;;;;;19.88;7.05;;;12.10;99.90;;;;;;5023373;28;20041;-35
2022/05/13 02:54:37;;;;;;;18.45;6.50;;;12.10;99.90;;;;;;5028838;28;20057;-35
2022/05/13 02:57:04;;;;;;;18.48;6.43;;;12.10;99.90;;;;;;5010085;28;20053;-36
2022/05/13 02:59:30;;;;;;;23.23;6.93;;;12.10;99.90;;;;;;5026556;28;20076;-35
2022/05/13 03:01:55;;;;;;;18.73;6.20;;;12.10;99.90;;;;;;5026774;28;20045;-35
2022/05/13 03:04:22;;;;;;;25.75;7.40;;;12.10;99.90;;;;;;5025889;28;20088;-35
2022/05/13 03:06:49;;;;;;;20.35;7.03;;;12.10;99.90;;;;;;5009060;28;20132;-35
2022/05/13 03:09:15;;;;;;;22.98;7.18;;;12.10;99.90;;;;;;5027321;28;20099;-35
2022/05/13 03:11:41;;;;;;;18.88;7.03;;;12.10;99.90;;;;;;5028820;28;20045;-35
2022/05/13 03:14:06;;;;;;;22.20;6.50;;;12.10;99.90;;;;;;5025589;28;20049;-35
2022/05/13 03:16:32;;;;;;;17.42;5.55;;;12.10;99.90;;;;;;5014042;28;20056;-36
2022/05/13 03:18:59;;;;;;;17.80;6.25;;;12.10;99.90;;;;;;5023814;28;20079;-35
2022/05/13 03:21:26;;;;;;;15.90;5.65;;;12.10;99.90;;;;;;5027649;28;20045;-35
2022/05/13 03:23:52;;;;;;;25.40;6.93;;;12.10;99.90;;;;;;5024707;28;20495;-35
2022/05/13 03:26:21;;;;;;;24.60;7.28;;;12.10;99.90;;;;;;5016147;28;20045;-36
2022/05/13 03:28:47;;;;;;;18.75;6.22;;;12.10;99.90;;;;;;5021943;28;20057;-35
2022/05/13 03:31:13;;;;;;;23.88;6.90;;;12.10;99.90;;;;;;5026027;28;20071;-35
2022/05/13 03:33:39;;;;;;;19.35;6.93;;;12.10;99.90;;;;;;5026541;28;20048;-35
2022/05/13 03:36:07;;;;;;;19.10;7.15;;;12.10;99.90;;;;;;5026830;28;20045;-36
2022/05/13 03:38:33;;;;;;;20.98;6.78;;;12.10;99.90;;;;;;5017777;28;20823;-35
2022/05/13 03:40:58;;;;;;;21.42;6.72;;;12.10;99.90;;;;;;5027339;28;20046;-35
2022/05/13 03:43:24;;;;;;;20.92;7.00;;;12.10;99.90;;;;;;5027254;28;20053;-35
2022/05/13 03:45:50;;;;;;;20.52;6.50;;;12.10;99.90;;;;;;5029208;28;20045;-35
2022/05/13 03:48:15;;;;;;;19.75;6.80;;;12.10;99.90;;;;;;5009483;28;20116;-35
2022/05/13 03:50:44;;;;;;;23.83;7.20;;;12.10;99.90;;;;;;5023103;28;20528;-35
2022/05/13 03:53:10;;;;;;;24.25;7.65;;;12.10;99.90;;;;;;5025274;28;20041;-35
2022/05/13 03:55:36;;;;;;;18.88;6.57;;;12.10;99.90;;;;;;5027626;28;20519;-35
2022/05/13 03:58:03;;;;;;;26.17;6.70;;;12.10;99.90;;;;;;5008436;28;20822;-35
2022/05/13 04:00:30;;;;;;;23.58;6.28;;;12.10;99.90;;;;;;5026279;28;20049;-35
2022/05/13 04:02:56;;;;;;;21.45;7.03;;;12.10;99.90;;;;;;5027849;28;20092;-35
2022/05/13 04:10:51;;;;;;;20.65;6.68;;;12.10;99.90;;;;;;5028719;28;20056;-35
2022/05/13 04:16:04;;;;;;;20.48;7.25;;;12.30;99.90;;;;;;5016856;28;20102;-35
2022/05/13 04:18:40;;;;;;;23.67;6.80;;;12.10;99.90;;;;;;5008952;28;20051;-35
2022/05/13 04:21:12;;;;;;;18.58;7.03;;;12.10;99.90;;;;;;5023169;28;20045;-35
2022/05/13 04:23:40;;;;;;;28.00;6.85;;;12.10;99.90;;;;;;5026513;28;20045;-35
2022/05/13 04:26:06;;;;;;;20.73;7.03;;;12.10;99.90;;;;;;5020061;28;20050;-36
2022/05/13 04:28:32;;;;;;;21.20;7.18;;;12.10;99.90;;;;;;5015035;28;20057;-35
2022/05/13 04:30:58;;;;;;;21.02;6.63;;;12.10;99.90;;;;;;5026047;28;20045;-35
2022/05/13 04:33:25;;;;;;;21.80;7.07;;;12.10;99.90;;;;;;5026875;28;20052;-35
2022/05/13 04:35:52;;;;;;;25.67;6.35;;;12.10;99.90;;;;;;5018403;28;20460;-35
2022/05/13 04:38:17;;;;;;;21.33;6.38;;;12.10;99.90;;;;;;5006918;28;20443;-35
2022/05/13 04:40:43;;;;;;;19.77;6.15;;;12.10;99.90;;;;;;5024218;28;20139;-35
2022/05/13 04:43:08;;;;;;;21.45;6.50;;;12.10;99.90;;;;;;5020142;28;20520;-35
2022/05/13 04:45:35;;;;;;;22.85;5.63;;;12.10;99.90;;;;;;5024703;28;20440;-35
2022/05/13 04:48:16;;;;;;;19.38;5.40;;;12.10;99.90;;;;;;5011145;28;20474;-35
2022/05/13 04:50:49;;;;;;;21.63;5.43;;;12.10;99.90;;;;;;5023827;28;20046;-35
2022/05/13 04:53:18;;;;;;;19.33;5.15;;;12.20;99.90;;;;;;5023890;28;20098;-35
2022/05/13 04:55:44;;;;;;;14.18;4.65;;;12.20;99.90;;;;;;5025803;28;20412;-35
2022/05/13 04:58:09;;;;;;;22.25;4.65;;;12.20;99.90;;;;;;5011157;28;20037;-35
2022/05/13 05:00:35;;;;;;;17.48;4.47;;;12.20;99.90;;;;;;5017733;28;20064;-35
2022/05/13 05:03:01;;;;;;;16.50;3.70;;;12.30;99.90;;;;;;5023184;28;20060;-35
2022/05/13 05:05:27;;;;;;;14.95;4.18;;;12.30;99.90;;;;;;5022564;28;20045;-35
2022/05/13 05:07:54;;;;;;;15.40;3.92;;;12.30;99.90;;;;;;5001079;28;20046;-35
2022/05/13 05:10:21;;;;;;;17.23;4.28;;;12.40;99.90;;;;;;5017239;28;20077;-35
2022/05/13 05:12:49;;;;;;;14.00;3.78;;;12.40;99.90;;;;;;5013000;28;20524;-35
2022/05/13 05:15:15;;;;;;;14.68;3.38;;;12.40;99.90;;;;;;5015620;28;20045;-35
2022/05/13 05:17:41;;;;;;;13.48;3.55;;;12.50;99.90;;;;;;5004344;28;20532;-36
2022/05/13 05:20:08;;;;;;;18.58;3.70;;;12.50;99.90;;;;;;5018358;28;20041;-35
2022/05/13 05:22:34;;;;;;;12.75;3.10;;;12.50;99.90;;;;;;5015802;28;20829;-35
2022/05/13 05:25:00;;;;;;;13.48;3.30;;;12.50;99.90;;;;;;5027353;28;20446;-35
2022/05/13 05:27:25;;;;;;;15.55;3.40;;;12.50;99.90;;;;;;5005183;28;20129;-35
2022/05/13 05:29:51;;;;;;;13.60;3.50;;;12.60;99.90;;;;;;5025194;28;20043;-35
2022/05/13 05:32:17;;;;;;;13.40;3.10;;;12.60;99.90;;;;;;5022458;28;20133;-35
2022/05/13 05:34:43;;;;;;;14.98;3.13;;;12.60;99.90;;;;;;5007445;28;20267;-35
2022/05/13 05:37:08;;;;;;;10.02;3.33;;;12.60;99.90;;;;;;4994187;28;20057;-35
2022/05/13 05:39:34;;;;;;;14.45;2.83;;;12.70;99.90;;;;;;5017220;28;20489;-35
2022/05/13 05:42:00;;;;;;;8.40;2.88;;;12.60;99.90;;;;;;5021589;28;20504;-35
2022/05/13 05:44:26;;;;;;;14.52;3.22;;;12.70;99.90;;;;;;5018160;28;20052;-35
2022/05/13 05:46:51;;;;;;;9.30;2.85;;;12.70;99.90;;;;;;5009761;28;20132;-36
2022/05/13 05:49:19;;;;;;;10.45;2.78;;;12.70;99.90;;;;;;5001110;28;20049;-35
2022/05/13 05:51:44;;;;;;;12.23;3.10;;;12.80;99.90;;;;;;5003030;28;20053;-35
2022/05/13 05:59:39;;;;;;;9.75;2.60;;;12.70;99.90;;;;;;5020387;28;20533;-35
2022/05/13 06:02:06;;;;;;;13.10;3.00;;;12.70;99.90;;;;;;5024547;28;20124;-36
2022/05/13 06:04:31;;;;;;;8.10;2.45;;;12.80;99.90;;;;;;5015392;28;20164;-35
2022/05/13 06:06:57;;;;;;;6.47;1.95;;;12.80;99.90;;;;;;4995968;28;20763;-35
2022/05/13 06:09:23;;;;;;;11.18;2.80;;;12.80;99.90;;;;;;5023716;28;20133;-35
2022/05/13 06:11:48;;;;;;;8.43;2.90;;;12.80;99.90;;;;;;5012190;28;20078;-35
2022/05/13 06:14:15;;;;;;;6.45;2.10;;;12.80;99.90;;;;;;5015702;28;20053;-35
2022/05/13 06:16:41;;;;;;;8.20;2.30;;;12.90;99.90;;;;;;5007194;28;20046;-36
2022/05/13 06:19:06;;;;;;;10.80;2.42;;;12.90;99.90;;;;;;4998330;28;20593;-35
2022/05/13 06:21:34;;;;;;;9.23;2.80;;;12.90;99.90;;;;;;5021662;28;20127;-35
2022/05/13 06:24:00;;;;;;;6.28;2.70;;;12.90;99.90;;;;;;5020184;28;20128;-35
2022/05/13 06:26:26;;;;;;;9.48;2.22;;;13.00;99.90;;;;;;5009409;28;20464;-36
2022/05/13 06:28:52;;;;;;;8.02;2.63;;;12.90;99.90;;;;;;5009411;28;20061;-35
2022/05/13 06:31:19;;;;;;;12.50;2.75;;;13.00;99.90;;;;;;5020334;28;20046;-36
2022/05/13 06:33:46;;;;;;;12.15;2.78;;;13.00;99.90;;;;;;5021574;28;20285;-35
2022/05/13 06:36:13;;;;;;;11.82;2.65;;;13.10;99.90;;;;;;4999842;28;20046;-36
2022/05/13 06:38:38;;;;;;;11.45;2.95;;;13.10;99.90;;;;;;5009913;28;20132;-35
2022/05/13 06:41:04;;;;;;;9.18;2.85;;;13.10;99.90;;;;;;5019894;28;20117;-35
2022/05/13 06:43:30;;;;;;;9.50;3.03;;;13.10;99.90;;;;;;5009645;28;20030;-35
2022/05/13 06:45:56;;;;;;;12.57;2.65;;;13.20;99.90;;;;;;5012195;28;20104;-35
2022/05/13 06:48:22;;;;;;;6.28;2.42;;;13.20;99.90;;;;;;4999080;28;20452;-35
2022/05/13 06:50:48;;;;;;;9.48;2.28;;;13.30;99.90;;;;;;4995082;28;20065;-36
2022/05/13 06:53:16;;;;;;;12.40;3.13;;;13.30;99.90;;;;;;5014967;28;20132;-36
2022/05/13 06:55:44;;;;;;;7.55;2.50;;;13.30;99.90;;;;;;5019825;28;20054;-36
2022/05/13 06:58:11;;;;;;;11.30;2.72;;;13.40;99.90;;;;;;5002097;28;20042;-35
2022/05/13 07:00:37;;;;;;;7.10;2.20;;;13.40;99.90;;;;;;5020697;28;20045;-35
2022/05/13 07:03:03;;;;;;;10.38;2.42;;;13.40;99.90;;;;;;5023185;28;20107;-35
2022/05/13 07:05:29;;;;;;;10.05;2.47;;;13.50;99.90;;;;;;5008656;28;20046;-35
2022/05/13 07:07:54;;;;;;;9.18;2.28;;;13.50;99.90;;;;;;4971741;28;20050;-36
2022/05/13 07:10:20;;;;;;;7.68;1.85;;;13.50;99.90;;;;;;4983850;28;20504;-35
2022/05/13 07:12:46;;;;;;;9.30;1.95;;;13.50;99.90;;;;;;4987256;28;20433;-36
2022/05/13 07:15:15;;;;;;;7.72;2.50;;;13.50;99.90;;;;;;4988308;28;20428;-36
2022/05/13 07:17:42;;;;;;;7.55;2.67;;;13.50;99.90;;;;;;4972239;28;20065;-35
2022/05/13 07:20:09;;;;;;;5.97;2.05;;;13.50;99.90;;;;;;4989625;28;20986;-36
2022/05/13 07:22:35;;;;;;;10.32;2.25;;;13.50;99.90;;;;;;4988647;28;20140;-35
2022/05/13 07:25:01;;;;;;;10.60;2.25;;;13.50;99.90;;;;;;4992901;28;20103;-36
2022/05/13 07:27:27;;;;;;;9.90;2.50;;;13.60;99.90;;;;;;4975856;28;20052;-36
2022/05/13 07:29:53;;;;;;;9.25;2.05;;;13.60;99.90;;;;;;4989881;28;20061;-36
2022/05/13 07:32:18;;;;;;;6.28;1.80;;;13.60;99.90;;;;;;4988083;28;20101;-36
2022/05/13 07:34:44;;;;;;;8.50;1.95;;;13.70;99.90;;;;;;4987753;28;20145;-36
2022/05/13 07:37:10;;;;;;;9.18;2.08;;;13.70;99.90;;;;;;4972950;28;20050;-36
2022/05/13 07:42:20;;;;;;;6.68;2.20;;;13.80;99.90;;;;;;4987680;28;20064;-36
2022/05/13 07:44:46;;;;;;;9.82;2.05;;;13.90;99.90;;;;;;4987959;28;20041;-36
2022/05/13 07:47:12;;;;;;;11.63;2.22;;;13.90;99.90;;;;;;4955212;28;20057;-36
2022/05/13 07:49:39;;;;;;;9.60;2.10;;;14.00;99.90;;;;;;4988023;28;20065;-36
2022/05/13 07:52:06;;;;;;;9.20;2.03;;;14.10;99.90;;;;;;4987390;28;20049;-36
2022/05/13 07:54:32;;;;;;;8.73;2.15;;;14.10;99.90;;;;;;4989214;28;20050;-36
2022/05/13 07:56:58;;;;;;;8.68;2.00;;;14.10;99.90;;;;;;4973100;28;20076;-36
2022/05/13 07:59:24;;;;;;;6.40;2.13;;;14.10;99.90;;;;;;4985927;28;20513;-36
2022/05/13 08:01:49;;;;;;;9.68;1.75;;;14.10;99.90;;;;;;4987047;28;20057;-36
2022/05/13 08:04:15;;;;;;;8.68;1.50;;;14.10;99.90;;;;;;4986797;28;20064;-36
2022/05/13 08:06:42;;;;;;;7.95;2.10;;;14.10;99.90;;;;;;4973586;28;20765;-36
2022/05/13 08:09:08;;;;;;;8.80;1.85;;;14.10;99.90;;;;;;4983752;28;20054;-36
2022/05/13 08:11:34;;;;;;;6.70;2.00;;;14.20;99.90;;;;;;4987319;28;20509;-36
2022/05/13 08:14:01;;;;;;;4.75;1.65;;;14.20;99.90;;;;;;4986733;28;20045;-36
2022/05/13 08:16:29;;;;;;;6.63;1.50;;;14.30;99.90;;;;;;4974987;28;20123;-36
2022/05/13 08:18:57;;;;;;;8.30;1.55;;;14.20;99.90;;;;;;4984722;28;20078;-36
2022/05/13 08:21:23;;;;;;;5.75;1.58;;;14.30;99.90;;;;;;4986504;28;20049;-36
2022/05/13 08:23:50;;;;;;;10.65;2.15;;;14.30;99.90;;;;;;4983961;28;20045;-36
2022/05/13 08:26:16;;;;;;;5.95;1.85;;;14.30;99.90;;;;;;4979498;28;20077;-36
2022/05/13 08:28:43;;;;;;;7.45;1.92;;;14.30;99.90;;;;;;4982843;28;20049;-36
2022/05/13 08:31:09;;;;;;;5.93;1.83;;;14.30;99.90;;;;;;4986563;28;20120;-36
2022/05/13 08:33:36;;;;;;;7.03;2.05;;;14.30;99.90;;;;;;4983023;28;20096;-36
2022/05/13 08:36:04;;;;;;;9.75;2.20;;;14.30;99.90;;;;;;4988563;28;20053;-36
2022/05/13 08:38:33;;;;;;;7.10;2.00;;;14.40;99.90;;;;;;4970904;28;20168;-36
2022/05/13 08:41:08;;;;;;;6.40;1.80;;;14.30;99.90;;;;;;4985282;28;20676;-36
2022/05/13 08:44:04;;;;;;;8.23;1.52;;;14.30;99.90;;;;;;4982126;28;20061;-36
2022/05/13 08:46:55;;;;;;;8.15;2.15;;;14.30;99.90;;;;;;4972701;28;20058;-36
2022/05/13 08:49:39;;;;;;;10.85;1.90;;;14.40;99.90;;;;;;4987575;28;20128;-36
2022/05/13 08:55:10;;;;;;;7.07;2.00;;;14.50;99.90;;;;;;4987960;28;20629;-36
2022/05/13 08:57:40;;;;;;;9.88;1.50;;;14.60;99.90;;;;;;4970700;28;20061;-36
2022/05/13 09:00:15;;;;;;;6.50;1.60;;;14.70;99.90;;;;;;4987415;28;20049;-36
2022/05/13 09:02:47;;;;;;;10.20;1.83;;;14.70;99.90;;;;;;4984521;28;20125;-36
2022/05/13 09:05:25;;;;;;;11.00;2.00;;;14.70;99.90;;;;;;4986327;28;20521;-36
2022/05/13 09:07:51;;;;;;;10.65;2.10;;;14.70;99.90;;;;;;4969241;28;20046;-36
2022/05/13 09:10:17;;;;;;;6.05;1.60;;;14.80;99.90;;;;;;4986763;28;20053;-36
2022/05/13 09:12:55;;;;;;;8.65;1.80;;;14.90;99.90;;;;;;4985554;28;20046;-36
2022/05/13 09:15:40;;;;;;;9.00;1.80;;;14.90;99.90;;;;;;4986640;28;20057;-36
2022/05/13 09:18:16;;;;;;;6.45;1.40;;;14.90;99.90;;;;;;4971963;28;20050;-36
2022/05/13 09:20:51;;;;;;;4.57;1.23;;;14.90;99.90;;;;;;4987349;28;20107;-36
2022/05/13 09:23:19;;;;;;;7.70;1.55;;;14.90;99.90;;;;;;4987222;28;20054;-36
2022/05/13 09:26:05;;;;;;;6.20;1.70;;;14.90;99.90;;;;;;4989083;28;20065;-36
2022/05/13 09:28:35;;;;;;;5.30;1.20;;;15.00;99.90;;;;;;4977006;28;20144;-36
2022/05/13 09:31:16;;;;;;;5.53;1.42;;;15.00;99.90;;;;;;4988351;28;20064;-36
2022/05/13 09:33:46;;;;;;;8.52;1.73;;;15.00;99.90;;;;;;4985667;28;20056;-36
2022/05/13 09:36:21;;;;;;;5.53;1.40;;;15.00;99.90;;;;;;4977177;28;20185;-36
2022/05/13 09:38:49;;;;;;;5.03;1.40;;;15.00;99.90;;;;;;4983479;28;20096;-37
2022/05/13 09:41:25;;;;;;;7.03;1.02;;;15.00;99.90;;;;;;4988946;28;20056;-36
2022/05/13 09:43:54;;;;;;;4.72;1.40;;;15.00;99.90;;;;;;4987880;28;20160;-36
2022/05/13 09:46:41;;;;;;;6.63;1.30;;;15.00;99.90;;;;;;4976969;28;20073;-36
2022/05/13 09:49:29;;;;;;;6.63;1.60;;;15.00;99.90;;;;;;4983208;28;20116;-36
2022/05/13 09:52:09;;;;;;;5.10;1.50;;;14.90;99.90;;;;;;4989418;28;20485;-36
2022/05/13 09:54:37;;;;;;;11.18;1.73;;;14.90;99.90;;;;;;4988940;28;20053;-36
2022/05/13 09:57:09;;;;;;;7.18;2.10;;;14.90;99.90;;;;;;4972233;28;20900;-37
2022/05/13 09:59:42;;;;;;;6.38;1.67;;;15.00;99.90;;;;;;4987727;28;20084;-36
2022/05/13 10:02:14;;;;;;;7.55;2.08;;;15.00;99.90;;;;;;4985497;28;20055;-36
2022/05/13 10:04:39;;;;;;;7.00;1.67;;;15.20;99.90;;;;;;4988056;28;20409;-36
2022/05/13 10:07:08;;;;;;;7.78;1.60;;;15.30;99.90;;;;;;4970570;28;20057;-37
2022/05/13 10:15:25;;;;;;;6.88;1.38;;;15.40;99.90;;;;;;4986730;28;20420;-36
2022/05/13 10:17:57;;;;;;;5.80;1.45;;;15.50;99.90;;;;;;4969998;28;20057;-36
2022/05/13 10:20:37;;;;;;;5.85;1.55;;;15.60;99.90;;;;;;4985750;28;20061;-36
2022/05/13 10:23:36;;;;;;;8.35;1.80;;;15.70;99.90;;;;;;4984818;28;20050;-37
2022/05/13 10:26:06;;;;;;;4.97;1.45;;;15.80;99.90;;;;;;4987955;28;20049;-36
2022/05/13 10:28:40;;;;;;;8.88;1.50;;;15.90;99.90;;;;;;4976870;28;20046;-36
2022/05/13 10:31:14;;;;;;;5.13;1.73;;;16.00;99.90;;;;;;4985197;28;20056;-36
2022/05/13 10:34:21;;;;;;;8.77;1.63;;;16.00;99.90;;;;;;4982841;28;20532;-36
2022/05/13 10:37:04;;;;;;;9.60;2.00;;;16.10;99.90;;;;;;4970338;28;20042;-36
2022/05/13 10:39:46;;;;;;;5.55;1.55;;;16.10;99.90;;;;;;4969056;28;20050;-36
2022/05/13 10:42:23;;;;;;;7.53;1.65;;;16.20;99.90;;;;;;4985744;28;20157;-36
2022/05/13 10:44:59;;;;;;;4.97;1.35;;;16.20;99.90;;;;;;4986599;28;20124;-37
2022/05/13 10:47:30;;;;;;;7.40;1.40;;;16.20;99.90;;;;;;4970717;28;20041;-36
2022/05/13 10:49:57;;;;;;;5.28;1.17;;;16.30;99.90;;;;;;4987059;28;20052;-37
2022/05/13 10:52:26;;;;;;;6.35;1.25;;;16.30;99.90;;;;;;4986118;28;20049;-36
2022/05/13 10:55:13;;;;;;;5.82;1.35;;;16.30;99.90;;;;;;4985765;28;20061;-37
2022/05/13 10:57:57;;;;;;;6.90;1.40;;;16.30;99.90;;;;;;4972515;28;20049;-37
2022/05/13 11:00:53;;;;;;;7.45;1.48;;;16.20;99.90;;;;;;4989834;28;20944;-36
2022/05/13 11:03:23;;;;;;;8.95;1.67;;;16.10;99.90;;;;;;4988008;28;20048;-37
2022/05/13 11:06:04;;;;;;;8.45;1.90;;;16.10;99.90;;;;;;4991603;28;20088;-36
2022/05/13 11:08:35;;;;;;;8.40;2.20;;;16.00;99.90;;;;;;4975546;28;20061;-36
2022/05/13 11:11:19;;;;;;;11.05;2.30;;;16.00;99.90;;;;;;4990527;28;20788;-37
2022/05/13 11:14:01;;;;;;;6.45;2.00;;;15.90;99.90;;;;;;4986926;28;20081;-36
2022/05/13 11:16:48;;;;;;;8.45;1.95;;;15.90;99.90;;;;;;4980694;28;20050;-36
2022/05/13 11:19:16;;;;;;;8.75;2.22;;;15.90;99.90;;;;;;4987521;28;20056;-37
2022/05/13 11:21:50;;;;;;;9.30;2.38;;;15.90;99.90;;;;;;4989355;28;20058;-36
2022/05/13 11:27:36;;;;;;;10.25;2.25;;;16.00;99.90;;;;;;4971324;28;20900;-37
2022/05/13 11:30:15;;;;;;;6.82;2.08;;;16.00;99.90;;;;;;4988685;28;20053;-37
2022/05/13 11:33:11;;;;;;;8.35;2.20;;;15.90;99.90;;;;;;4987715;28;20053;-36
2022/05/13 11:35:41;;;;;;;8.82;2.15;;;15.90;99.90;;;;;;4988061;28;20088;-37
2022/05/13 11:38:25;;;;;;;8.25;2.10;;;15.90;99.90;;;;;;4975387;28;20176;-37
2022/05/13 11:41:04;;;;;;;9.13;2.38;;;15.90;99.90;;;;;;4988912;28;20120;-36
2022/05/13 11:43:58;;;;;;;11.60;2.40;;;15.90;99.90;;;;;;4986992;28;20559;-37
2022/05/13 11:46:51;;;;;;;9.15;2.25;;;15.90;99.90;;;;;;4978623;28;20073;-37
2022/05/13 11:49:34;;;;;;;6.38;2.28;;;15.90;99.90;;;;;;4984610;28;20045;-37
2022/05/13 11:52:11;;;;;;;9.23;2.38;;;16.20;99.90;;;;;;4960083;28;20093;-36
2022/05/13 11:54:41;;;;;;;9.88;2.03;;;16.00;99.90;;;;;;4988579;28;20732;-36
2022/05/13 11:57:27;;;;;;;8.35;2.00;;;16.00;99.90;;;;;;4972813;28;20053;-36
2022/05/13 11:59:56;;;;;;;8.57;1.92;;;16.00;99.90;;;;;;4987851;28;20057;-37
2022/05/13 12:02:51;;;;;;;11.23;1.70;;;16.00;99.90;;;;;;4987887;28;20050;-36
2022/05/13 12:05:17;;;;;;;6.13;2.00;;;16.10;99.90;;;;;;4986352;28;20046;-36
2022/05/13 12:08:01;;;;;;;7.18;1.65;;;16.00;99.90;;;;;;4971693;28;20046;-36
2022/05/13 12:10:40;;;;;;;8.52;2.25;;;16.00;99.90;;;;;;4987845;28;20145;-36
2022/05/13 12:13:33;;;;;;;7.75;2.20;;;15.90;99.90;;;;;;4987449;28;20077;-36
2022/05/13 12:16:36;;;;;;;9.43;2.58;;;16.10;99.90;;;;;;4988270;28;20596;-36
2022/05/13 12:19:41;;;;;;;10.15;2.08;;;16.00;99.90;;;;;;4985200;28;20049;-36
2022/05/13 12:22:19;;;;;;;10.82;2.40;;;16.20;99.90;;;;;;4987275;28;21841;-36
2022/05/13 12:24:53;;;;;;;9.48;2.08;;;16.30;99.90;;;;;;4988801;28;20042;-37
2022/05/13 12:27:30;;;;;;;7.50;2.60;;;16.30;99.90;;;;;;4974474;28;20053;-37
2022/05/13 12:30:00;;;;;;;6.55;1.85;;;16.50;99.90;;;;;;4982597;28;20144;-36
2022/05/13 12:32:48;;;;;;;6.45;2.35;;;16.50;99.90;;;;;;4987761;28;20042;-36
2022/05/13 12:38:19;;;;;;;7.75;2.10;;;16.60;99.90;;;;;;4968849;28;20119;-37
2022/05/13 12:41:15;;;;;;;11.35;2.50;;;16.70;99.90;;;;;;4985082;28;20072;-36
2022/05/13 12:44:08;;;;;;;6.63;2.13;;;16.70;99.90;;;;;;4988326;28;20041;-37
2022/05/13 12:46:42;;;;;;;10.57;2.75;;;16.70;99.90;;;;;;4975703;28;20073;-36
2022/05/13 12:49:47;;;;;;;13.45;2.50;;;16.80;99.90;;;;;;4985790;28;20286;-36
2022/05/13 12:52:17;;;;;;;9.80;2.30;;;16.80;99.90;;;;;;4986562;28;20092;-37
2022/05/13 12:55:18;;;;;;;10.75;2.30;;;16.90;99.90;;;;;;4982143;28;21633;-37
2022/05/13 12:58:04;;;;;;;9.43;2.22;;;16.90;99.90;;;;;;4964575;28;20567;-36
2022/05/13 13:00:48;;;;;;;9.40;2.42;;;16.80;99.90;;;;;;4984124;28;20060;-37
2022/05/13 13:03:15;;;;;;;6.63;1.40;;;16.80;99.90;;;;;;4986853;28;20655;-36
2022/05/13 13:05:50;;;;;;;10.18;1.85;;;16.90;99.90;;;;;;4986877;28;20037;-36
2022/05/13 13:08:26;;;;;;;5.50;1.52;;;17.00;99.90;;;;;;4970766;28;20141;-37
2022/05/13 13:11:03;;;;;;;5.32;1.63;;;17.00;99.90;;;;;;4986549;28;20408;-37
2022/05/13 13:13:56;;;;;;;9.32;1.80;;;17.00;99.90;;;;;;4981679;28;20497;-37
2022/05/13 13:16:52;;;;;;;7.57;1.60;;;16.90;99.90;;;;;;4973911;28;20729;-37
2022/05/13 13:19:20;;;;;;;8.70;1.75;;;16.90;99.90;;;;;;4983624;28;20056;-37
2022/05/13 13:21:52;;;;;;;6.88;1.98;;;16.90;99.90;;;;;;4987404;28;20054;-37
2022/05/13 13:24:24;;;;;;;8.15;1.80;;;16.90;99.90;;;;;;4984952;28;20523;-36
2022/05/13 13:26:51;;;;;;;8.18;2.28;;;16.90;99.90;;;;;;4972206;28;20053;-37
2022/05/13 13:29:23;;;;;;;7.70;1.80;;;17.00;99.90;;;;;;4985434;28;20058;-36
2022/05/13 13:31:51;;;;;;;7.60;2.30;;;17.10;99.90;;;;;;4988069;28;22188;-37